Verona / Villafranca Airport LIPX

Flugplatz Daten

Name: Verona / Villafranca Airport

Ident: LIPX

Lat: 45,39569855

Long: 10,88850021

Platzhöhe: 239 ft

IataCode: VRN

City: Verona

Homepage: http://www.aeroportoverona.it/

Metar

2021/08/05 14:20
LIPX 051420Z 28008KT 250V310 CAVOK 28/14 Q1005

Taf

2021/08/05 12:21
TAF LIPX 051100Z 0512/0612 26012KT 9999 FEW040
BECMG 0518/0520 09010KT
BECMG 0601/0603 VRB05KT
Gewünschte Webcam nicht vorhanden? Dann fügen Sie eine hinzu. Sie wird dann so schnell wie möglich freigeschaltet
Url: Title: